createdAt,value
2019-06-10T00:01:08.619Z,21.50
2019-06-10T00:03:37.908Z,21.40
2019-06-10T00:06:07.588Z,21.40
2019-06-10T00:08:37.177Z,21.40
2019-06-10T00:11:07.808Z,21.40
2019-06-10T00:13:37.532Z,21.40
2019-06-10T00:16:08.010Z,21.40
2019-06-10T00:18:42.060Z,21.40
2019-06-10T00:21:11.021Z,21.40
2019-06-10T00:23:41.294Z,21.40
2019-06-10T00:26:12.455Z,21.40
2019-06-10T00:28:42.278Z,21.30
2019-06-10T00:31:11.864Z,21.30
2019-06-10T00:33:41.647Z,21.30
2019-06-10T00:36:13.562Z,21.30
2019-06-10T00:38:42.450Z,21.30
2019-06-10T00:41:14.162Z,21.30
2019-06-10T00:43:43.248Z,21.30
2019-06-10T00:46:13.348Z,21.30
2019-06-10T00:48:43.028Z,21.20
2019-06-10T00:51:13.202Z,21.20
2019-06-10T00:53:42.987Z,21.20
2019-06-10T00:56:14.305Z,21.20
2019-06-10T00:58:43.891Z,21.20
2019-06-10T01:01:14.729Z,21.20
2019-06-10T01:03:44.387Z,21.20
2019-06-10T01:06:15.324Z,21.10
2019-06-10T01:08:45.961Z,21.10
2019-06-10T01:11:21.240Z,21.10
2019-06-10T01:13:46.779Z,20.70
2019-06-10T01:16:16.419Z,21.10
2019-06-10T01:18:46.015Z,21.10
2019-06-10T01:21:15.674Z,21.10
2019-06-10T01:23:46.247Z,21.10
2019-06-10T01:26:16.398Z,21.10
2019-06-10T01:28:46.189Z,21.00
2019-06-10T01:31:20.723Z,21.10
2019-06-10T01:33:47.047Z,21.00
2019-06-10T01:36:16.704Z,21.00
2019-06-10T01:38:46.286Z,21.00
2019-06-10T01:41:16.704Z,21.00
2019-06-10T01:43:46.322Z,21.00
2019-06-10T01:46:16.290Z,20.90
2019-06-10T01:48:48.310Z,21.00
2019-06-10T01:51:21.107Z,20.90
2019-06-10T01:53:51.248Z,20.90
2019-06-10T01:56:21.628Z,20.90
2019-06-10T01:58:52.447Z,20.90
2019-06-10T02:01:35.211Z,20.80
2019-06-10T02:04:05.217Z,20.80
2019-06-10T02:06:34.805Z,20.80
2019-06-10T02:09:06.650Z,20.80
2019-06-10T02:11:37.053Z,20.80
2019-06-10T02:14:07.006Z,20.70
2019-06-10T02:16:36.756Z,20.60
2019-06-10T02:19:06.394Z,20.50
2019-06-10T02:21:35.987Z,20.40
2019-06-10T02:24:05.733Z,20.30
2019-06-10T02:26:35.296Z,20.30
2019-06-10T02:29:05.064Z,20.20
2019-06-10T02:31:37.396Z,20.20
2019-06-10T02:34:06.960Z,20.10
2019-06-10T02:36:37.193Z,20.00
2019-06-10T02:39:08.567Z,20.00
2019-06-10T02:41:38.720Z,19.90
2019-06-10T02:44:08.521Z,19.90
2019-06-10T02:46:38.160Z,19.80
2019-06-10T02:49:26.601Z,19.70
2019-06-10T02:51:39.108Z,19.70
2019-06-10T02:54:08.753Z,19.70
2019-06-10T02:56:38.413Z,19.70
2019-06-10T02:59:08.781Z,19.60
2019-06-10T03:01:38.623Z,19.60
2019-06-10T03:04:08.212Z,19.50
2019-06-10T03:06:40.214Z,19.50
2019-06-10T03:09:09.000Z,19.60
2019-06-10T03:11:38.580Z,19.60
2019-06-10T03:14:08.181Z,19.60
2019-06-10T03:16:42.183Z,19.60
2019-06-10T03:19:13.179Z,19.60
2019-06-10T03:21:42.880Z,19.60
2019-06-10T03:24:13.583Z,19.60
2019-06-10T03:26:43.178Z,19.60
2019-06-10T03:29:13.048Z,19.60
2019-06-10T03:31:47.561Z,19.70
2019-06-10T03:34:14.653Z,19.60
2019-06-10T03:36:45.165Z,19.60
2019-06-10T03:39:14.759Z,19.60
2019-06-10T03:41:44.347Z,19.70
2019-06-10T03:44:14.000Z,19.60
2019-06-10T03:46:43.591Z,19.60
2019-06-10T03:49:13.233Z,19.70
2019-06-10T03:51:43.068Z,19.70
2019-06-10T03:54:13.208Z,19.60
2019-06-10T03:56:43.196Z,19.70
2019-06-10T03:59:12.821Z,19.70
2019-06-10T04:01:42.814Z,19.70
2019-06-10T04:04:13.026Z,19.70
2019-06-10T04:06:44.368Z,19.70
2019-06-10T04:09:15.212Z,19.70
2019-06-10T04:11:45.044Z,19.70
2019-06-10T04:14:15.902Z,19.60
2019-06-10T04:16:45.498Z,19.60
2019-06-10T04:19:15.171Z,19.60
2019-06-10T04:21:44.735Z,19.70
2019-06-10T04:24:14.319Z,19.70
2019-06-10T04:26:43.908Z,19.70
2019-06-10T04:29:13.483Z,19.70
2019-06-10T04:31:43.098Z,19.70
2019-06-10T04:34:12.677Z,19.70
2019-06-10T04:36:42.562Z,19.70
2019-06-10T04:39:12.646Z,19.70
2019-06-10T04:41:43.825Z,19.70
2019-06-10T04:44:13.433Z,19.70
2019-06-10T04:46:44.081Z,19.70
2019-06-10T04:49:13.674Z,19.70
2019-06-10T04:51:43.623Z,19.70
2019-06-10T04:54:14.329Z,19.70
2019-06-10T04:56:43.904Z,19.70
2019-06-10T04:59:13.485Z,19.70
2019-06-10T05:01:43.081Z,19.70
2019-06-10T05:04:12.815Z,19.80
2019-06-10T05:06:45.694Z,19.80
2019-06-10T05:09:15.452Z,19.80
2019-06-10T05:11:45.044Z,19.90
2019-06-10T05:14:14.620Z,20.00
2019-06-10T05:16:44.779Z,20.10
2019-06-10T05:19:14.611Z,20.10
2019-06-10T05:21:44.390Z,20.20
2019-06-10T05:24:13.949Z,20.30
2019-06-10T05:26:43.597Z,20.40
2019-06-10T05:29:13.273Z,20.40
2019-06-10T05:31:43.721Z,20.50
2019-06-10T05:34:13.470Z,20.50
2019-06-10T05:36:43.839Z,20.60
2019-06-10T05:39:13.481Z,20.60
2019-06-10T05:41:43.428Z,20.70
2019-06-10T05:44:13.566Z,20.70
2019-06-10T05:46:44.266Z,20.70
2019-06-10T05:49:13.850Z,20.70
2019-06-10T05:51:43.668Z,20.70
2019-06-10T05:54:13.245Z,20.70
2019-06-10T05:56:43.427Z,20.70
2019-06-10T05:59:13.320Z,20.70
2019-06-10T06:01:43.318Z,20.70
2019-06-10T06:04:13.076Z,20.70
2019-06-10T06:06:45.132Z,20.70
2019-06-10T06:09:14.028Z,20.80
2019-06-10T06:11:43.609Z,20.80
2019-06-10T06:14:13.413Z,20.80
2019-06-10T06:16:45.085Z,20.80
2019-06-10T06:19:14.677Z,20.80
2019-06-10T06:21:47.584Z,20.70
2019-06-10T06:24:15.490Z,20.70
2019-06-10T06:26:45.111Z,20.70
2019-06-10T06:29:14.723Z,20.70
2019-06-10T06:31:44.299Z,20.60
2019-06-10T06:34:14.229Z,20.50
2019-06-10T06:36:43.889Z,20.50
2019-06-10T06:39:13.480Z,20.50
2019-06-10T06:41:43.145Z,20.50
2019-06-10T06:44:13.084Z,20.60
2019-06-10T06:46:43.207Z,20.60
2019-06-10T06:49:13.178Z,20.60
2019-06-10T06:51:54.720Z,20.70
2019-06-10T06:54:14.116Z,20.70
2019-06-10T06:56:44.017Z,20.80
2019-06-10T06:59:14.542Z,20.90
2019-06-10T07:01:44.638Z,21.00
2019-06-10T07:04:14.462Z,21.00
2019-06-10T07:06:44.129Z,21.00
2019-06-10T07:09:13.922Z,21.00
2019-06-10T07:11:46.179Z,21.00
2019-06-10T07:14:16.893Z,21.10
2019-06-10T07:16:46.866Z,21.10
2019-06-10T07:19:16.548Z,21.10
2019-06-10T07:22:07.486Z,21.10
2019-06-10T07:24:17.494Z,21.20
2019-06-10T07:26:54.069Z,21.20
2019-06-10T07:29:18.335Z,21.20
2019-06-10T07:31:50.365Z,21.20
2019-06-10T07:34:19.219Z,21.20
2019-06-10T07:36:48.886Z,21.20
2019-06-10T07:39:18.470Z,21.30
2019-06-10T07:41:48.261Z,21.30
2019-06-10T07:44:18.844Z,20.90
2019-06-10T07:46:48.521Z,21.40
2019-06-10T07:49:18.179Z,21.40
2019-06-10T07:51:47.793Z,21.40
2019-06-10T07:54:17.626Z,21.40
2019-06-10T07:56:50.526Z,21.40
2019-06-10T07:59:19.711Z,21.40
2019-06-10T08:01:51.771Z,21.50
2019-06-10T08:04:22.649Z,21.60
2019-06-10T08:06:52.947Z,21.60
2019-06-10T08:09:22.904Z,21.70
2019-06-10T08:11:53.245Z,21.80
2019-06-10T08:14:23.086Z,21.90
2019-06-10T08:16:53.297Z,22.00
2019-06-10T08:19:34.534Z,22.00
2019-06-10T08:21:54.832Z,22.10
2019-06-10T08:24:24.377Z,22.10
2019-06-10T08:26:53.979Z,22.10
2019-06-10T08:29:23.795Z,22.10
2019-06-10T08:31:53.599Z,22.10
2019-06-10T08:34:24.286Z,22.10
2019-06-10T08:36:54.596Z,22.10
2019-06-10T08:39:24.400Z,22.20
2019-06-10T08:41:54.309Z,22.10
2019-06-10T08:44:24.308Z,22.20
2019-06-10T08:46:54.063Z,22.20
2019-06-10T08:49:24.051Z,22.20
2019-06-10T08:51:53.853Z,22.20
2019-06-10T08:54:23.697Z,22.30
2019-06-10T08:56:53.995Z,22.30
2019-06-10T08:59:23.920Z,22.40
2019-06-10T09:01:56.715Z,22.40
2019-06-10T09:04:25.012Z,22.40
2019-06-10T09:06:54.701Z,22.50
2019-06-10T09:09:24.397Z,22.50
2019-06-10T09:11:54.804Z,22.50
2019-06-10T09:14:24.546Z,22.50
2019-06-10T09:16:55.193Z,22.60
2019-06-10T09:19:24.751Z,22.60
2019-06-10T09:21:56.312Z,22.60
2019-06-10T09:24:25.639Z,22.70
2019-06-10T09:26:55.220Z,22.70
2019-06-10T09:29:25.039Z,22.80
2019-06-10T09:31:55.947Z,22.90
2019-06-10T09:34:25.727Z,22.90
2019-06-10T09:36:56.826Z,23.00
2019-06-10T09:39:27.778Z,23.00
2019-06-10T09:42:02.686Z,23.00
2019-06-10T09:44:29.180Z,23.10
2019-06-10T09:47:03.267Z,23.10
2019-06-10T09:49:33.475Z,23.20
2019-06-10T09:52:03.560Z,23.20
2019-06-10T09:54:33.775Z,23.30
2019-06-10T09:57:04.473Z,23.40
2019-06-10T09:59:34.233Z,23.40
2019-06-10T10:02:07.060Z,23.50
2019-06-10T10:04:37.817Z,23.50
2019-06-10T10:07:08.549Z,23.50
2019-06-10T10:09:38.408Z,23.60
2019-06-10T10:12:08.016Z,23.60
2019-06-10T10:14:37.586Z,23.60
2019-06-10T10:17:07.278Z,23.70
2019-06-10T10:19:36.894Z,23.70
2019-06-10T10:22:06.545Z,23.70
2019-06-10T10:24:36.258Z,23.80
2019-06-10T10:27:09.284Z,23.80
2019-06-10T10:29:37.104Z,23.90
2019-06-10T10:32:06.769Z,23.90
2019-06-10T10:34:36.473Z,23.90
2019-06-10T10:37:06.118Z,24.00
2019-06-10T10:39:35.849Z,24.10
2019-06-10T10:42:05.637Z,24.10
2019-06-10T10:44:35.311Z,24.20
2019-06-10T10:47:05.058Z,24.20
2019-06-10T10:49:34.660Z,24.30
2019-06-10T10:52:04.324Z,24.30
2019-06-10T10:54:36.803Z,24.40
2019-06-10T10:57:05.123Z,24.40
2019-06-10T10:59:34.866Z,24.50
2019-06-10T11:02:04.578Z,24.50
2019-06-10T11:04:35.195Z,24.60
2019-06-10T11:07:04.920Z,24.60
2019-06-10T11:09:34.527Z,24.70
2019-06-10T11:12:04.335Z,24.80
2019-06-10T11:14:34.375Z,24.80
2019-06-10T11:17:04.048Z,24.90
2019-06-10T11:19:33.657Z,25.00
2019-06-10T11:22:03.244Z,25.00
2019-06-10T11:24:40.208Z,25.00
2019-06-10T11:27:04.415Z,25.10
2019-06-10T11:29:34.075Z,25.10
2019-06-10T11:32:03.753Z,25.20
2019-06-10T11:34:33.453Z,25.20
2019-06-10T11:37:03.943Z,25.30
2019-06-10T11:39:38.429Z,25.40
2019-06-10T11:42:05.396Z,25.40
2019-06-10T11:44:35.160Z,25.40
2019-06-10T11:47:05.275Z,25.50
2019-06-10T11:49:35.272Z,25.60
2019-06-10T11:52:05.076Z,25.70
2019-06-10T11:54:50.724Z,25.80
2019-06-10T11:57:05.953Z,25.90
2019-06-10T11:59:35.548Z,26.10
2019-06-10T12:02:06.200Z,26.40
2019-06-10T12:04:35.987Z,26.40
2019-06-10T12:07:05.608Z,26.40
2019-06-10T12:09:35.232Z,27.40
2019-06-10T12:12:05.002Z,27.10
2019-06-10T12:14:34.581Z,27.10
2019-06-10T12:17:35.009Z,27.10
2019-06-10T12:19:35.579Z,27.00
2019-06-10T12:22:07.632Z,27.00
2019-06-10T12:24:36.491Z,27.00
2019-06-10T12:27:06.040Z,27.10
2019-06-10T12:29:35.700Z,27.00
2019-06-10T12:32:07.095Z,27.10
2019-06-10T12:34:36.896Z,27.00
2019-06-10T12:37:11.947Z,27.00
2019-06-10T12:39:38.924Z,27.00
2019-06-10T12:42:11.181Z,27.10
2019-06-10T12:44:39.792Z,27.20
2019-06-10T12:47:09.376Z,27.40
2019-06-10T12:49:38.967Z,27.50
2019-06-10T12:52:08.559Z,27.60
2019-06-10T12:54:38.237Z,27.70
2019-06-10T12:57:07.825Z,27.90
2019-06-10T12:59:37.431Z,28.10
2019-06-10T13:02:18.976Z,28.20
2019-06-10T13:04:39.529Z,28.30
2019-06-10T13:07:12.528Z,28.60
2019-06-10T13:09:43.971Z,28.80
2019-06-10T13:12:14.599Z,28.90
2019-06-10T13:14:44.173Z,29.00
2019-06-10T13:17:13.756Z,29.30
2019-06-10T13:19:43.441Z,29.50
2019-06-10T13:22:14.076Z,29.70
2019-06-10T13:24:44.682Z,29.90
2019-06-10T13:27:14.280Z,29.90
2019-06-10T13:29:43.977Z,29.80
2019-06-10T13:32:14.493Z,29.90
2019-06-10T13:34:44.222Z,29.90
2019-06-10T13:37:16.267Z,30.00
2019-06-10T13:39:46.176Z,29.90
2019-06-10T13:42:17.221Z,29.90
2019-06-10T13:44:47.198Z,30.10
2019-06-10T13:47:17.751Z,30.30
2019-06-10T13:49:47.408Z,30.40
2019-06-10T13:52:17.130Z,30.40
2019-06-10T13:54:46.766Z,30.30
2019-06-10T13:57:16.426Z,30.10
2019-06-10T13:59:46.622Z,29.70
2019-06-10T14:02:16.404Z,29.30
2019-06-10T14:04:46.083Z,29.00
2019-06-10T14:07:17.417Z,28.70
2019-06-10T14:09:46.931Z,28.30
2019-06-10T14:12:17.288Z,28.10
2019-06-10T14:14:48.379Z,27.80
2019-06-10T14:17:19.628Z,27.60
2019-06-10T14:19:49.211Z,27.50
2019-06-10T14:22:18.933Z,27.30
2019-06-10T14:24:48.710Z,27.20
2019-06-10T14:27:21.472Z,27.10
2019-06-10T14:29:49.585Z,27.00
2019-06-10T14:32:19.173Z,26.90
2019-06-10T14:34:48.757Z,26.90
2019-06-10T14:37:32.227Z,26.80
2019-06-10T14:39:52.879Z,26.80
2019-06-10T14:42:23.001Z,26.80
2019-06-10T14:44:52.778Z,26.70
2019-06-10T14:47:22.962Z,26.70
2019-06-10T14:49:53.073Z,26.80
2019-06-10T14:52:22.834Z,26.80
2019-06-10T14:54:53.372Z,26.90
2019-06-10T14:57:23.111Z,27.00
2019-06-10T14:59:53.132Z,27.00
2019-06-10T15:02:22.939Z,27.00
2019-06-10T15:04:53.200Z,27.00
2019-06-10T15:07:23.755Z,27.00
2019-06-10T15:09:53.649Z,27.10
2019-06-10T15:12:23.291Z,27.00
2019-06-10T15:14:52.890Z,26.90
2019-06-10T15:17:22.540Z,26.90
2019-06-10T15:19:53.026Z,26.80
2019-06-10T15:22:23.642Z,26.70
2019-06-10T15:24:53.435Z,26.60
2019-06-10T15:27:29.849Z,26.60
2019-06-10T15:29:54.353Z,26.50
2019-06-10T15:32:33.825Z,26.40
2019-06-10T15:34:55.299Z,26.50
2019-06-10T15:37:28.017Z,26.60
2019-06-10T15:39:56.233Z,26.80
2019-06-10T15:42:25.823Z,27.00
2019-06-10T15:44:56.899Z,27.10
2019-06-10T15:47:26.748Z,27.40
2019-06-10T15:49:57.446Z,27.60
2019-06-10T15:52:27.079Z,27.70
2019-06-10T15:54:56.726Z,27.70
2019-06-10T15:57:38.515Z,27.80
2019-06-10T15:59:57.685Z,27.90
2019-06-10T16:02:27.269Z,27.80
2019-06-10T16:04:56.872Z,27.70
2019-06-10T16:07:26.541Z,27.40
2019-06-10T16:09:56.193Z,27.40
2019-06-10T16:12:26.914Z,27.30
2019-06-10T16:14:56.741Z,27.30
2019-06-10T16:17:30.077Z,27.20
2019-06-10T16:19:58.561Z,27.30
2019-06-10T16:22:28.243Z,27.30
2019-06-10T16:24:57.892Z,27.40
2019-06-10T16:27:43.530Z,27.40
2019-06-10T16:30:02.779Z,27.30
2019-06-10T16:32:32.947Z,27.30
2019-06-10T16:35:04.015Z,27.30
2019-06-10T16:37:33.632Z,27.30
2019-06-10T16:40:04.287Z,27.20
2019-06-10T16:42:33.863Z,27.20
2019-06-10T16:45:04.899Z,27.20
2019-06-10T16:47:34.639Z,27.10
2019-06-10T16:50:05.765Z,27.00
2019-06-10T16:52:35.410Z,26.90
2019-06-10T16:55:06.049Z,26.80
2019-06-10T16:57:36.652Z,26.60
2019-06-10T17:00:12.115Z,26.50
2019-06-10T17:02:39.049Z,26.40
2019-06-10T17:05:08.955Z,26.30
2019-06-10T17:07:38.638Z,26.10
2019-06-10T17:10:08.560Z,26.00
2019-06-10T17:12:38.121Z,25.90
2019-06-10T17:15:09.757Z,25.80
2019-06-10T17:17:39.775Z,25.70
2019-06-10T17:20:10.402Z,25.60
2019-06-10T17:22:40.069Z,25.60
2019-06-10T17:25:09.886Z,25.60
2019-06-10T17:27:42.148Z,25.50
2019-06-10T17:30:13.219Z,25.50
2019-06-10T17:32:42.829Z,25.50
2019-06-10T17:35:12.699Z,25.40
2019-06-10T17:37:43.197Z,25.40
2019-06-10T17:40:13.958Z,25.40
2019-06-10T17:42:43.596Z,25.40
2019-06-10T17:45:14.435Z,25.40
2019-06-10T17:47:44.494Z,25.40
2019-06-10T17:50:14.230Z,25.30
2019-06-10T17:52:43.884Z,25.30
2019-06-10T17:55:13.721Z,25.20
2019-06-10T17:57:43.558Z,25.20
2019-06-10T18:00:14.890Z,25.20
2019-06-10T18:02:44.753Z,25.10
2019-06-10T18:05:14.484Z,25.10
2019-06-10T18:07:44.156Z,25.00
2019-06-10T18:10:14.091Z,25.00
2019-06-10T18:12:43.719Z,25.00
2019-06-10T18:15:16.036Z,24.90
2019-06-10T18:17:45.709Z,24.80
2019-06-10T18:20:15.942Z,24.80
2019-06-10T18:22:45.544Z,24.70
2019-06-10T18:25:15.514Z,24.60
2019-06-10T18:27:45.157Z,24.60
2019-06-10T18:30:14.851Z,24.50
2019-06-10T18:32:44.439Z,24.40
2019-06-10T18:35:14.589Z,24.40
2019-06-10T18:37:44.296Z,24.30
2019-06-10T18:40:14.718Z,24.30
2019-06-10T18:42:44.315Z,24.20
2019-06-10T18:45:14.667Z,24.20
2019-06-10T18:47:44.324Z,24.20
2019-06-10T18:50:14.677Z,24.20
2019-06-10T18:52:44.269Z,24.20
2019-06-10T18:55:14.283Z,24.20
2019-06-10T18:57:43.855Z,24.20
2019-06-10T19:00:14.891Z,24.20
2019-06-10T19:02:44.614Z,24.10
2019-06-10T19:05:14.448Z,24.10
2019-06-10T19:07:46.776Z,24.00
2019-06-10T19:10:17.226Z,24.00
2019-06-10T19:12:46.815Z,24.00
2019-06-10T19:15:16.867Z,24.00
2019-06-10T19:17:46.518Z,24.00
2019-06-10T19:20:16.269Z,24.00
2019-06-10T19:22:45.987Z,24.00
2019-06-10T19:25:17.250Z,23.90
2019-06-10T19:27:47.019Z,23.90
2019-06-10T19:30:17.464Z,23.90
2019-06-10T19:32:47.099Z,23.80
2019-06-10T19:35:16.941Z,23.80
2019-06-10T19:37:46.608Z,23.70
2019-06-10T19:40:17.368Z,23.60
2019-06-10T19:42:47.092Z,23.60
2019-06-10T19:45:17.418Z,23.50
2019-06-10T19:47:47.062Z,23.50
2019-06-10T19:50:17.265Z,23.50
2019-06-10T19:52:46.837Z,23.50
2019-06-10T19:55:16.647Z,23.50
2019-06-10T19:57:46.228Z,23.60
2019-06-10T20:00:16.557Z,23.60
2019-06-10T20:02:47.036Z,23.60
2019-06-10T20:05:17.136Z,23.60
2019-06-10T20:07:50.303Z,23.60
2019-06-10T20:10:18.570Z,23.60
2019-06-10T20:12:48.155Z,23.60
2019-06-10T20:15:22.417Z,23.60
2019-06-10T20:17:52.623Z,23.50
2019-06-10T20:20:23.672Z,23.50
2019-06-10T20:22:57.124Z,23.50
2019-06-10T20:25:25.658Z,23.50
2019-06-10T20:27:55.366Z,23.50
2019-06-10T20:30:28.889Z,23.40
2019-06-10T20:32:57.069Z,23.40
2019-06-10T20:35:27.090Z,23.40
2019-06-10T20:37:56.814Z,23.30
2019-06-10T20:40:26.937Z,23.30
2019-06-10T20:43:00.115Z,23.30
2019-06-10T20:45:28.400Z,23.20
2019-06-10T20:47:58.345Z,23.20
2019-06-10T20:50:28.355Z,23.20
2019-06-10T20:53:10.937Z,23.20
2019-06-10T20:55:40.345Z,23.10
2019-06-10T20:58:04.159Z,23.10
2019-06-10T21:00:37.178Z,23.10
2019-06-10T21:03:07.409Z,23.10
2019-06-10T21:05:37.083Z,23.10
2019-06-10T21:08:06.891Z,23.10
2019-06-10T21:10:37.610Z,23.00
2019-06-10T21:13:08.264Z,23.00
2019-06-10T21:15:38.001Z,23.00
2019-06-10T21:18:07.751Z,23.00
2019-06-10T21:20:37.405Z,23.00
2019-06-10T21:23:07.056Z,22.90
2019-06-10T21:25:36.651Z,22.90
2019-06-10T21:28:06.269Z,22.80
2019-06-10T21:30:41.686Z,22.80
2019-06-10T21:33:07.838Z,22.80
2019-06-10T21:35:37.410Z,22.80
2019-06-10T21:38:07.003Z,22.70
2019-06-10T21:40:36.575Z,22.70
2019-06-10T21:43:06.180Z,22.70
2019-06-10T21:45:35.770Z,22.60
2019-06-10T21:48:05.471Z,22.60
2019-06-10T21:50:35.170Z,22.60
2019-06-10T21:53:04.814Z,22.50
2019-06-10T21:55:34.413Z,22.50
2019-06-10T21:58:04.134Z,22.50
2019-06-10T22:00:52.783Z,22.50
2019-06-10T22:03:14.418Z,22.40
2019-06-10T22:05:44.586Z,22.40
2019-06-10T22:08:15.590Z,22.40
2019-06-10T22:10:45.912Z,22.40
2019-06-10T22:13:15.623Z,22.40
2019-06-10T22:15:46.368Z,22.40
2019-06-10T22:18:16.569Z,22.30
2019-06-10T22:20:46.794Z,22.30
2019-06-10T22:23:16.516Z,22.20
2019-06-10T22:25:46.825Z,22.20
2019-06-10T22:28:16.658Z,22.20
2019-06-10T22:30:47.139Z,22.20
2019-06-10T22:33:16.931Z,22.10
2019-06-10T22:35:47.487Z,22.10
2019-06-10T22:38:17.201Z,22.10
2019-06-10T22:40:46.907Z,22.10
2019-06-10T22:43:16.490Z,22.00
2019-06-10T22:45:47.376Z,22.00
2019-06-10T22:48:16.995Z,21.90
2019-06-10T22:50:46.943Z,21.80
2019-06-10T22:53:16.623Z,21.60
2019-06-10T22:55:46.232Z,21.50
2019-06-10T22:58:15.842Z,21.50
2019-06-10T23:00:45.446Z,21.50
2019-06-10T23:03:15.265Z,21.50
2019-06-10T23:05:44.843Z,21.40
2019-06-10T23:08:14.497Z,21.30
2019-06-10T23:10:44.113Z,21.30
2019-06-10T23:13:16.362Z,21.20
2019-06-10T23:15:45.014Z,21.20
2019-06-10T23:18:14.581Z,21.30
2019-06-10T23:20:44.185Z,21.30
2019-06-10T23:23:13.742Z,21.20
2019-06-10T23:25:43.339Z,21.20
2019-06-10T23:28:13.246Z,21.20
2019-06-10T23:30:43.154Z,21.20
2019-06-10T23:33:12.891Z,21.20
2019-06-10T23:35:43.160Z,21.20
2019-06-10T23:38:13.364Z,21.30
2019-06-10T23:40:43.210Z,21.30
2019-06-10T23:43:13.761Z,21.30
2019-06-10T23:45:43.346Z,21.30
2019-06-10T23:48:13.508Z,21.30
2019-06-10T23:50:43.792Z,21.30
2019-06-10T23:53:13.600Z,21.30
2019-06-10T23:55:43.198Z,21.30
2019-06-10T23:58:13.138Z,21.30
